Time;durP1;ratioP1;P1;durP2;ratioP2;P2;SDS_P1;SDS_P2;PMS_P1;PMS_P2;Temp;Humidity;BMP_temperature;BMP_pressure;BME280_temperature;BME280_humidity;BME280_pressure;Samples;Min_cycle;Max_cycle;Signal;HPM_P1;HPM_P2
2022/08/08 00:00:56;;;;;;;2.67;1.37;;;;;;;;;;5101008;28;20200;-65
2022/08/08 00:03:40;;;;;;;0.90;0.90;;;;;;;;;;5118053;28;20255;-65
2022/08/08 00:06:11;;;;;;;2.27;1.10;;;;;;;;;;5121220;28;20664;-65
2022/08/08 00:08:48;;;;;;;1.10;1.00;;;;;;;;;;5121393;28;20206;-65
2022/08/08 00:11:19;;;;;;;1.00;1.00;;;;;;;;;;5121173;28;20289;-65
2022/08/08 00:13:52;;;;;;;0.97;0.97;;;;;;;;;;5120778;28;20645;-65
2022/08/08 00:16:46;;;;;;;0.67;0.67;;;;;;;;;;5121002;28;21132;-65
2022/08/08 00:19:18;;;;;;;1.13;1.07;;;;;;;;;;5120984;28;20250;-65
2022/08/08 00:21:51;;;;;;;1.30;1.00;;;;;;;;;;5120856;28;20574;-65
2022/08/08 00:24:22;;;;;;;1.20;0.93;;;;;;;;;;5120248;28;20233;-65
2022/08/08 00:26:58;;;;;;;0.83;0.70;;;;;;;;;;5100519;28;20206;-65
2022/08/08 00:29:29;;;;;;;1.90;0.90;;;;;;;;;;5100311;28;20206;-65
2022/08/08 00:32:15;;;;;;;2.23;1.10;;;;;;;;;;5100561;28;20202;-65
2022/08/08 00:35:14;;;;;;;1.20;1.00;;;;;;;;;;5100179;28;20231;-65
2022/08/08 00:38:02;;;;;;;0.97;0.90;;;;;;;;;;5100350;28;20229;-65
2022/08/08 00:40:51;;;;;;;0.90;0.90;;;;;;;;;;5100368;28;20210;-66
2022/08/08 00:44:03;;;;;;;0.90;0.90;;;;;;;;;;5098781;28;20233;-65
2022/08/08 00:46:43;;;;;;;0.90;0.90;;;;;;;;;;5099416;28;20205;-65
2022/08/08 00:49:37;;;;;;;1.10;0.80;;;;;;;;;;5120218;28;20206;-66
2022/08/08 00:52:24;;;;;;;1.07;0.97;;;;;;;;;;5119833;28;20214;-65
2022/08/08 00:55:16;;;;;;;0.80;0.80;;;;;;;;;;5106493;28;20281;-66
2022/08/08 00:58:07;;;;;;;1.20;1.10;;;;;;;;;;5099681;28;20263;-65
2022/08/08 01:00:46;;;;;;;0.90;0.90;;;;;;;;;;5099543;28;20202;-65
2022/08/08 01:03:36;;;;;;;1.63;1.03;;;;;;;;;;5114284;28;20815;-65
2022/08/08 01:06:40;;;;;;;1.67;1.00;;;;;;;;;;5119811;28;20597;-65
2022/08/08 01:09:26;;;;;;;2.07;1.10;;;;;;;;;;5119881;28;20219;-65
2022/08/08 01:12:28;;;;;;;0.90;0.90;;;;;;;;;;5119960;28;20204;-65
2022/08/08 01:15:12;;;;;;;2.30;1.10;;;;;;;;;;5117584;28;20263;-65
2022/08/08 01:18:13;;;;;;;2.90;1.13;;;;;;;;;;5117781;28;20233;-65
2022/08/08 01:21:09;;;;;;;1.20;1.20;;;;;;;;;;5118042;28;20212;-65
2022/08/08 01:24:10;;;;;;;1.10;1.00;;;;;;;;;;5109396;28;20229;-65
2022/08/08 01:27:01;;;;;;;1.00;1.00;;;;;;;;;;5034595;28;20293;-63
2022/08/08 01:29:51;;;;;;;0.97;0.97;;;;;;;;;;5095892;28;20267;-65
2022/08/08 01:32:52;;;;;;;0.90;0.90;;;;;;;;;;5072338;28;20208;-65
2022/08/08 01:35:41;;;;;;;0.90;0.90;;;;;;;;;;5099370;28;20237;-65
2022/08/08 01:38:28;;;;;;;0.93;0.73;;;;;;;;;;5098980;28;20240;-66
2022/08/08 01:41:02;;;;;;;2.10;1.10;;;;;;;;;;5098782;28;20669;-65
2022/08/08 01:43:37;;;;;;;1.97;1.00;;;;;;;;;;5110707;28;20699;-65
2022/08/08 01:46:11;;;;;;;1.53;0.87;;;;;;;;;;5119211;28;20200;-65
2022/08/08 01:48:46;;;;;;;0.90;0.90;;;;;;;;;;5119333;28;20232;-65
2022/08/08 01:51:38;;;;;;;1.53;1.37;;;;;;;;;;5118863;28;20307;-63
2022/08/08 01:54:34;;;;;;;1.10;1.07;;;;;;;;;;5110425;28;20331;-63
2022/08/08 01:57:26;;;;;;;1.80;1.20;;;;;;;;;;5117584;28;20229;-63
2022/08/08 02:00:17;;;;;;;0.80;0.80;;;;;;;;;;5118421;28;20571;-63
2022/08/08 02:02:56;;;;;;;1.40;0.93;;;;;;;;;;5119091;28;20200;-63
2022/08/08 02:05:28;;;;;;;2.83;1.03;;;;;;;;;;5118793;28;20723;-63
2022/08/08 02:08:21;;;;;;;1.20;1.10;;;;;;;;;;5114766;28;20289;-65
2022/08/08 02:10:59;;;;;;;1.93;1.83;;;;;;;;;;5118687;28;20210;-65
2022/08/08 02:13:30;;;;;;;0.93;0.93;;;;;;;;;;5118615;28;20234;-65
2022/08/08 02:16:23;;;;;;;1.63;0.97;;;;;;;;;;5118846;28;20206;-65
2022/08/08 02:18:59;;;;;;;0.97;0.97;;;;;;;;;;5118634;28;20648;-65
2022/08/08 02:24:39;;;;;;;1.10;1.10;;;;;;;;;;5115107;28;20230;-65
2022/08/08 02:27:13;;;;;;;1.23;1.10;;;;;;;;;;5098104;28;20293;-65
2022/08/08 02:29:48;;;;;;;2.50;1.20;;;;;;;;;;5098093;28;20210;-65
2022/08/08 02:32:37;;;;;;;1.40;1.30;;;;;;;;;;5098052;28;20252;-65
2022/08/08 02:35:21;;;;;;;2.07;1.20;;;;;;;;;;5098184;28;20227;-64
2022/08/08 02:38:02;;;;;;;2.87;1.03;;;;;;;;;;5097871;28;20242;-64
2022/08/08 02:40:42;;;;;;;1.10;1.10;;;;;;;;;;5098089;28;20231;-65
2022/08/08 02:43:35;;;;;;;1.83;1.40;;;;;;;;;;5108901;28;20286;-64
2022/08/08 02:46:41;;;;;;;1.30;1.20;;;;;;;;;;5118374;28;20297;-65
2022/08/08 02:49:37;;;;;;;1.37;1.27;;;;;;;;;;5118205;28;20205;-65
2022/08/08 02:52:51;;;;;;;1.20;1.10;;;;;;;;;;5118000;28;20213;-65
2022/08/08 02:55:29;;;;;;;2.80;1.17;;;;;;;;;;5101383;28;20568;-64
2022/08/08 02:58:22;;;;;;;1.37;1.27;;;;;;;;;;5097968;28;20262;-65
2022/08/08 03:01:11;;;;;;;1.50;1.20;;;;;;;;;;5089536;28;20209;-65
2022/08/08 03:04:01;;;;;;;1.13;1.13;;;;;;;;;;5116229;28;20240;-65
2022/08/08 03:07:09;;;;;;;1.67;1.27;;;;;;;;;;5118256;28;20207;-65
2022/08/08 03:10:17;;;;;;;2.00;1.23;;;;;;;;;;5118201;28;20219;-65
2022/08/08 03:13:15;;;;;;;1.10;1.00;;;;;;;;;;5118081;28;20205;-65
2022/08/08 03:16:17;;;;;;;1.20;1.10;;;;;;;;;;5117982;28;20226;-65
2022/08/08 03:19:14;;;;;;;2.90;1.10;;;;;;;;;;5118204;28;20298;-65
2022/08/08 03:21:46;;;;;;;1.33;1.23;;;;;;;;;;5118184;28;20204;-65
2022/08/08 03:24:28;;;;;;;2.83;1.50;;;;;;;;;;5116210;28;20234;-65
2022/08/08 03:26:58;;;;;;;1.53;1.43;;;;;;;;;;5097668;28;20232;-65
2022/08/08 03:29:31;;;;;;;2.63;1.20;;;;;;;;;;5097221;28;20255;-65
2022/08/08 03:35:09;;;;;;;1.60;1.40;;;;;;;;;;5110800;28;20232;-65
2022/08/08 03:37:39;;;;;;;1.10;1.10;;;;;;;;;;5121874;28;20232;-65
2022/08/08 03:40:29;;;;;;;1.50;1.40;;;;;;;;;;5121617;28;20292;-65
2022/08/08 03:42:59;;;;;;;1.40;1.33;;;;;;;;;;5121511;28;20763;-65
2022/08/08 03:45:46;;;;;;;1.53;1.40;;;;;;;;;;5121879;28;20207;-65
2022/08/08 03:48:34;;;;;;;1.23;1.13;;;;;;;;;;5121585;28;20214;-64
2022/08/08 03:51:23;;;;;;;1.50;1.40;;;;;;;;;;5121333;28;20242;-63
2022/08/08 03:54:08;;;;;;;1.40;1.30;;;;;;;;;;5116561;28;20228;-65
2022/08/08 03:56:43;;;;;;;1.50;1.40;;;;;;;;;;5101172;28;20275;-65
2022/08/08 03:59:13;;;;;;;1.57;1.47;;;;;;;;;;5100823;28;20223;-65
2022/08/08 04:01:49;;;;;;;1.20;1.20;;;;;;;;;;5103871;28;20237;-65
2022/08/08 04:04:38;;;;;;;3.93;1.50;;;;;;;;;;5121380;28;20230;-65
2022/08/08 04:07:08;;;;;;;2.40;1.40;;;;;;;;;;5121397;28;20219;-65
2022/08/08 04:09:36;;;;;;;1.63;1.43;;;;;;;;;;5121287;28;20211;-65
2022/08/08 04:12:25;;;;;;;1.47;1.37;;;;;;;;;;5120953;28;20653;-65
2022/08/08 04:14:54;;;;;;;2.80;1.50;;;;;;;;;;5120935;28;20232;-65
2022/08/08 04:17:22;;;;;;;1.73;1.40;;;;;;;;;;5105869;28;20206;-65
2022/08/08 04:20:10;;;;;;;1.30;1.20;;;;;;;;;;5120615;28;20216;-65
2022/08/08 04:22:38;;;;;;;1.47;1.33;;;;;;;;;;5121260;28;20244;-65
2022/08/08 04:25:07;;;;;;;1.30;1.20;;;;;;;;;;5116313;28;20684;-65
2022/08/08 04:27:43;;;;;;;1.93;1.40;;;;;;;;;;5120920;28;20209;-65
2022/08/08 04:30:31;;;;;;;1.37;1.23;;;;;;;;;;5120538;28;20205;-65
2022/08/08 04:33:10;;;;;;;1.50;1.10;;;;;;;;;;5120757;28;20369;-65
2022/08/08 04:35:42;;;;;;;1.73;1.40;;;;;;;;;;5120827;28;20210;-65
2022/08/08 04:38:18;;;;;;;1.73;1.63;;;;;;;;;;5120664;28;20298;-65
2022/08/08 04:40:48;;;;;;;1.60;1.50;;;;;;;;;;5120328;28;20269;-65
2022/08/08 04:43:22;;;;;;;1.77;1.20;;;;;;;;;;5114030;28;20291;-65
2022/08/08 04:46:10;;;;;;;2.13;1.60;;;;;;;;;;5110232;28;20883;-65
2022/08/08 04:48:42;;;;;;;1.50;1.40;;;;;;;;;;5118474;28;20229;-65
2022/08/08 04:51:10;;;;;;;3.33;2.10;;;;;;;;;;5118178;28;20729;-64
2022/08/08 04:53:50;;;;;;;3.63;1.50;;;;;;;;;;5110894;28;20242;-65
2022/08/08 04:56:38;;;;;;;2.27;1.47;;;;;;;;;;5097930;28;20207;-64
2022/08/08 04:59:08;;;;;;;1.77;1.17;;;;;;;;;;5097544;28;20244;-65
2022/08/08 05:01:36;;;;;;;2.07;1.30;;;;;;;;;;5112575;28;20214;-65
2022/08/08 05:04:15;;;;;;;2.80;1.63;;;;;;;;;;5119549;28;20229;-64
2022/08/08 05:06:44;;;;;;;1.50;1.40;;;;;;;;;;5119827;28;20197;-64
2022/08/08 05:09:12;;;;;;;2.27;1.30;;;;;;;;;;5118274;28;20203;-64
2022/08/08 05:11:42;;;;;;;1.87;1.30;;;;;;;;;;5120074;28;20212;-64
2022/08/08 05:14:16;;;;;;;1.50;1.40;;;;;;;;;;5119501;28;20693;-64
2022/08/08 05:16:47;;;;;;;1.40;1.30;;;;;;;;;;5120186;28;20294;-64
2022/08/08 05:19:27;;;;;;;1.87;1.40;;;;;;;;;;5119979;28;20308;-64
2022/08/08 05:22:15;;;;;;;1.33;1.23;;;;;;;;;;5119932;28;20245;-64
2022/08/08 05:24:54;;;;;;;5.10;1.70;;;;;;;;;;5110110;28;20228;-64
2022/08/08 05:27:23;;;;;;;1.60;1.50;;;;;;;;;;5099354;28;20206;-65
2022/08/08 05:29:53;;;;;;;2.40;1.50;;;;;;;;;;5099281;28;20209;-64
2022/08/08 05:32:23;;;;;;;1.60;1.50;;;;;;;;;;5099077;28;20248;-65
2022/08/08 05:34:58;;;;;;;1.50;1.40;;;;;;;;;;5099306;28;20235;-64
2022/08/08 05:37:32;;;;;;;2.43;1.40;;;;;;;;;;5099419;28;20211;-64
2022/08/08 05:40:19;;;;;;;2.40;1.57;;;;;;;;;;5098996;28;20235;-64
2022/08/08 05:42:59;;;;;;;1.30;1.20;;;;;;;;;;5099033;28;20267;-63
2022/08/08 05:45:31;;;;;;;2.77;1.60;;;;;;;;;;5117392;28;20249;-64
2022/08/08 05:48:19;;;;;;;1.60;1.50;;;;;;;;;;5119470;28;20206;-63
2022/08/08 05:50:58;;;;;;;1.83;1.63;;;;;;;;;;5119118;28;20233;-64
2022/08/08 05:53:42;;;;;;;1.73;1.50;;;;;;;;;;5106095;28;20270;-63
2022/08/08 05:56:30;;;;;;;6.17;2.00;;;;;;;;;;5097914;28;20212;-64
2022/08/08 05:59:02;;;;;;;4.90;2.13;;;;;;;;;;5098438;28;20232;-64
2022/08/08 06:01:32;;;;;;;1.70;1.43;;;;;;;;;;5098606;28;20226;-64
2022/08/08 06:04:23;;;;;;;3.27;1.40;;;;;;;;;;5098379;28;20733;-64
2022/08/08 06:06:52;;;;;;;1.53;1.43;;;;;;;;;;5098394;28;20235;-64
2022/08/08 06:09:22;;;;;;;2.07;1.60;;;;;;;;;;5098485;28;20219;-64
2022/08/08 06:12:10;;;;;;;3.10;1.40;;;;;;;;;;5098348;28;20265;-64
2022/08/08 06:14:45;;;;;;;4.07;1.33;;;;;;;;;;5098274;28;20225;-64
2022/08/08 06:17:18;;;;;;;1.10;1.00;;;;;;;;;;5098589;28;20212;-64
2022/08/08 06:19:59;;;;;;;2.80;1.50;;;;;;;;;;5103814;28;20320;-64
2022/08/08 06:22:29;;;;;;;1.47;1.37;;;;;;;;;;5118155;28;20292;-64
2022/08/08 06:25:02;;;;;;;2.57;1.60;;;;;;;;;;5118646;28;20233;-63
2022/08/08 06:27:33;;;;;;;4.03;1.83;;;;;;;;;;5118611;28;20221;-64
2022/08/08 06:30:06;;;;;;;1.20;1.20;;;;;;;;;;5118512;28;20206;-64
2022/08/08 06:32:42;;;;;;;1.63;1.30;;;;;;;;;;5118691;28;20211;-64
2022/08/08 06:35:17;;;;;;;1.67;1.57;;;;;;;;;;5118470;28;20205;-64
2022/08/08 06:38:06;;;;;;;1.50;1.40;;;;;;;;;;5118321;28;20212;-64
2022/08/08 06:40:41;;;;;;;3.23;1.47;;;;;;;;;;5118198;28;20669;-64
2022/08/08 06:43:21;;;;;;;2.27;1.23;;;;;;;;;;5114160;28;20217;-64
2022/08/08 06:46:01;;;;;;;1.40;1.30;;;;;;;;;;5111039;28;20214;-61
2022/08/08 06:48:31;;;;;;;2.80;1.53;;;;;;;;;;5112217;28;20294;-61
2022/08/08 06:50:59;;;;;;;3.30;1.30;;;;;;;;;;5116253;28;20228;-61
2022/08/08 06:53:34;;;;;;;2.53;1.57;;;;;;;;;;5105078;28;20245;-64
2022/08/08 06:56:07;;;;;;;4.20;1.63;;;;;;;;;;5107430;28;20305;-63
2022/08/08 06:58:35;;;;;;;3.60;1.70;;;;;;;;;;5110969;28;20245;-64
2022/08/08 07:01:09;;;;;;;6.43;1.40;;;;;;;;;;5105933;28;20317;-64
2022/08/08 07:04:01;;;;;;;3.47;1.37;;;;;;;;;;5108919;28;20229;-64
2022/08/08 07:06:53;;;;;;;5.70;1.40;;;;;;;;;;5104715;28;20300;-63
2022/08/08 07:09:24;;;;;;;3.63;1.50;;;;;;;;;;5113846;28;20210;-63
2022/08/08 07:11:55;;;;;;;2.90;1.30;;;;;;;;;;5121482;28;20299;-62
2022/08/08 07:14:26;;;;;;;964.77;691.20;;;;;;;;;;5121776;28;20309;-59
2022/08/08 07:16:59;;;;;;;22.00;16.17;;;;;;;;;;5121650;28;20206;-59
2022/08/08 07:19:38;;;;;;;5.17;3.63;;;;;;;;;;5118831;28;20260;-59
2022/08/08 07:22:07;;;;;;;3.90;3.27;;;;;;;;;;5109571;28;20210;-59
2022/08/08 07:24:49;;;;;;;4.07;3.37;;;;;;;;;;5122054;28;20274;-59
2022/08/08 07:27:22;;;;;;;1.63;1.53;;;;;;;;;;5111056;28;20198;-59
2022/08/08 07:30:02;;;;;;;3.70;2.53;;;;;;;;;;5116662;28;20189;-59
2022/08/08 07:32:42;;;;;;;2.83;2.37;;;;;;;;;;5105562;28;20197;-59
2022/08/08 07:35:12;;;;;;;3.70;2.70;;;;;;;;;;5114578;27;20227;-59
2022/08/08 07:37:41;;;;;;;1.70;1.60;;;;;;;;;;5116225;27;20247;-59
2022/08/08 07:40:29;;;;;;;3.67;1.80;;;;;;;;;;5115533;27;20229;-59
2022/08/08 07:43:01;;;;;;;3.17;1.73;;;;;;;;;;5120605;28;20206;-59
2022/08/08 07:45:35;;;;;;;3.30;1.90;;;;;;;;;;5121754;27;20207;-59
2022/08/08 07:48:23;;;;;;;2.27;1.67;;;;;;;;;;5123511;27;20209;-59
2022/08/08 07:50:59;;;;;;;2.13;1.90;;;;;;;;;;5119854;28;20319;-59
2022/08/08 07:53:32;;;;;;;1.53;1.43;;;;;;;;;;5108454;28;20222;-59
2022/08/08 07:56:21;;;;;;;2.20;1.57;;;;;;;;;;5113280;28;20652;-59
2022/08/08 07:59:05;;;;;;;4.73;1.50;;;;;;;;;;5120168;28;20205;-59
2022/08/08 08:01:35;;;;;;;6.13;1.90;;;;;;;;;;5121291;27;20230;-59
2022/08/08 08:04:27;;;;;;;1.70;1.60;;;;;;;;;;5120214;28;20236;-60
2022/08/08 08:07:00;;;;;;;4.20;2.07;;;;;;;;;;5119790;27;20201;-60
2022/08/08 08:09:32;;;;;;;3.90;1.57;;;;;;;;;;5112365;28;20205;-57
2022/08/08 08:12:03;;;;;;;2.67;1.67;;;;;;;;;;5112865;28;20200;-59
2022/08/08 08:14:35;;;;;;;2.87;1.60;;;;;;;;;;5114592;27;20560;-59
2022/08/08 08:17:07;;;;;;;2.13;1.53;;;;;;;;;;5116425;28;20204;-59
2022/08/08 08:19:36;;;;;;;2.07;1.33;;;;;;;;;;5115705;28;20207;-59
2022/08/08 08:22:14;;;;;;;1.63;1.53;;;;;;;;;;5117096;27;20560;-59
2022/08/08 08:24:58;;;;;;;4.03;1.97;;;;;;;;;;5119781;28;20254;-60
2022/08/08 08:27:35;;;;;;;3.33;1.70;;;;;;;;;;5118467;27;20207;-59
2022/08/08 08:30:03;;;;;;;1.23;1.23;;;;;;;;;;5115927;28;20207;-59
2022/08/08 08:32:34;;;;;;;1.73;1.63;;;;;;;;;;5119579;28;20212;-59
2022/08/08 08:35:17;;;;;;;2.47;1.47;;;;;;;;;;5111120;28;20213;-60
2022/08/08 08:37:58;;;;;;;3.47;1.80;;;;;;;;;;5113100;27;20251;-60
2022/08/08 08:40:45;;;;;;;3.00;1.87;;;;;;;;;;5112479;28;20246;-60
2022/08/08 08:43:18;;;;;;;1.60;1.50;;;;;;;;;;5110763;28;20291;-60
2022/08/08 08:45:47;;;;;;;1.57;1.47;;;;;;;;;;5112631;28;20203;-60
2022/08/08 08:48:17;;;;;;;2.20;1.53;;;;;;;;;;5114946;28;20202;-60
2022/08/08 08:50:49;;;;;;;3.80;1.97;;;;;;;;;;5119210;28;20224;-60
2022/08/08 08:53:20;;;;;;;1.83;1.57;;;;;;;;;;5110838;28;20218;-60
2022/08/08 08:56:10;;;;;;;8.00;1.83;;;;;;;;;;5120157;28;20298;-60
2022/08/08 08:58:41;;;;;;;1.60;1.50;;;;;;;;;;5119993;28;20268;-60
2022/08/08 09:01:13;;;;;;;2.07;1.50;;;;;;;;;;5120027;28;20234;-60
2022/08/08 09:03:43;;;;;;;4.67;3.97;;;;;;;;;;5125948;27;20702;-62
2022/08/08 09:06:19;;;;;;;2.07;1.90;;;;;;;;;;5106544;28;20231;-62
2022/08/08 09:09:04;;;;;;;3.97;1.60;;;;;;;;;;5119758;28;20257;-63
2022/08/08 09:11:53;;;;;;;3.07;1.60;;;;;;;;;;5120108;28;20292;-64
2022/08/08 09:14:35;;;;;;;2.77;1.80;;;;;;;;;;5119544;28;20280;-63
2022/08/08 09:17:09;;;;;;;4.27;1.70;;;;;;;;;;5118916;28;20262;-63
2022/08/08 09:19:45;;;;;;;4.00;1.63;;;;;;;;;;5118206;28;20233;-64
2022/08/08 09:22:34;;;;;;;2.30;1.70;;;;;;;;;;5116075;28;20224;-64
2022/08/08 09:25:04;;;;;;;1.83;1.50;;;;;;;;;;5112284;28;20224;-63
2022/08/08 09:27:34;;;;;;;1.73;1.63;;;;;;;;;;5117792;28;20210;-64
2022/08/08 09:30:24;;;;;;;1.60;1.50;;;;;;;;;;5104576;28;20574;-63
2022/08/08 09:32:54;;;;;;;1.50;1.40;;;;;;;;;;5117675;28;20229;-63
2022/08/08 09:35:44;;;;;;;1.43;1.43;;;;;;;;;;5117669;28;20214;-63
2022/08/08 09:38:25;;;;;;;1.70;1.53;;;;;;;;;;5123633;27;20204;-63
2022/08/08 09:40:59;;;;;;;1.80;1.60;;;;;;;;;;5104974;28;20276;-63
2022/08/08 09:43:29;;;;;;;1.70;1.60;;;;;;;;;;5105108;28;20270;-63
2022/08/08 09:46:17;;;;;;;2.90;1.47;;;;;;;;;;5104702;28;20289;-63
2022/08/08 09:48:58;;;;;;;1.60;1.50;;;;;;;;;;5106981;28;20206;-63
2022/08/08 09:51:47;;;;;;;2.50;1.33;;;;;;;;;;5119119;28;20210;-63
2022/08/08 09:54:44;;;;;;;1.70;1.60;;;;;;;;;;5118947;28;20606;-63
2022/08/08 09:57:17;;;;;;;1.37;1.37;;;;;;;;;;5118927;28;20260;-63
2022/08/08 09:59:51;;;;;;;4.83;1.60;;;;;;;;;;5118788;28;20207;-63
2022/08/08 10:02:41;;;;;;;144.53;29.07;;;;;;;;;;5118759;28;20234;-64
2022/08/08 10:05:15;;;;;;;7.73;3.40;;;;;;;;;;5119185;28;20213;-63
2022/08/08 10:07:55;;;;;;;1.50;1.40;;;;;;;;;;5118951;27;20200;-64
2022/08/08 10:10:28;;;;;;;1.97;1.60;;;;;;;;;;5118708;28;20208;-63
2022/08/08 10:13:01;;;;;;;1.65;1.55;;;;;;;;;;5118455;28;20200;-63
2022/08/08 10:15:44;;;;;;;3.70;1.27;;;;;;;;;;5119039;28;20204;-63
2022/08/08 10:18:28;;;;;;;1.77;1.67;;;;;;;;;;5103942;28;20206;-63
2022/08/08 10:21:01;;;;;;;1.90;1.33;;;;;;;;;;5118589;28;20671;-63
2022/08/08 10:23:49;;;;;;;2.77;1.40;;;;;;;;;;5111131;28;20224;-63
2022/08/08 10:26:28;;;;;;;1.30;1.30;;;;;;;;;;5098089;28;20649;-63
2022/08/08 10:29:21;;;;;;;1.70;1.60;;;;;;;;;;5098095;28;20289;-63
2022/08/08 10:34:49;;;;;;;1.33;1.33;;;;;;;;;;5097908;28;20588;-63
2022/08/08 10:37:26;;;;;;;1.77;1.50;;;;;;;;;;5097982;28;20196;-63
2022/08/08 10:39:57;;;;;;;2.87;1.33;;;;;;;;;;5110268;28;20238;-63
2022/08/08 10:42:32;;;;;;;1.40;1.30;;;;;;;;;;5117200;28;20587;-63
2022/08/08 10:45:03;;;;;;;2.33;1.17;;;;;;;;;;5118166;28;20233;-63
2022/08/08 10:47:36;;;;;;;1.47;1.37;;;;;;;;;;5118300;28;20293;-63
2022/08/08 10:50:14;;;;;;;1.17;1.17;;;;;;;;;;5114167;28;20394;-63
2022/08/08 10:52:44;;;;;;;1.57;1.47;;;;;;;;;;5118118;28;20667;-64
2022/08/08 10:55:13;;;;;;;1.80;1.70;;;;;;;;;;5118087;28;20204;-63
2022/08/08 10:58:02;;;;;;;1.93;1.83;;;;;;;;;;5118097;28;20294;-63
2022/08/08 11:00:35;;;;;;;1.47;1.20;;;;;;;;;;5118074;28;20243;-63
2022/08/08 11:03:20;;;;;;;4.53;1.40;;;;;;;;;;5117860;28;20227;-63
2022/08/08 11:06:08;;;;;;;1.30;1.30;;;;;;;;;;5118010;28;20289;-63
2022/08/08 11:08:40;;;;;;;2.00;1.80;;;;;;;;;;5118076;28;20258;-64
2022/08/08 11:11:20;;;;;;;2.27;1.83;;;;;;;;;;5118065;28;20256;-63
2022/08/08 11:14:08;;;;;;;1.37;1.33;;;;;;;;;;5117682;28;20310;-63
2022/08/08 11:16:44;;;;;;;2.67;1.20;;;;;;;;;;5117982;28;20306;-63
2022/08/08 11:19:14;;;;;;;2.37;1.30;;;;;;;;;;5117880;28;20211;-63
2022/08/08 11:21:45;;;;;;;1.53;1.43;;;;;;;;;;5117847;28;20226;-63
2022/08/08 11:24:25;;;;;;;2.27;1.37;;;;;;;;;;5114697;28;20594;-63
2022/08/08 11:26:54;;;;;;;2.27;2.10;;;;;;;;;;5097936;28;20215;-63
2022/08/08 11:29:24;;;;;;;2.00;1.80;;;;;;;;;;5097405;28;20206;-63
2022/08/08 11:32:14;;;;;;;1.50;1.40;;;;;;;;;;5097621;28;20209;-63
2022/08/08 11:34:46;;;;;;;3.97;1.40;;;;;;;;;;5097623;28;20229;-63
2022/08/08 11:37:34;;;;;;;1.50;1.40;;;;;;;;;;5097321;28;20268;-63
2022/08/08 11:40:22;;;;;;;1.60;1.50;;;;;;;;;;5103974;28;20205;-63
2022/08/08 11:42:54;;;;;;;3.20;2.90;;;;;;;;;;5117052;28;20624;-63
2022/08/08 11:45:22;;;;;;;2.20;2.00;;;;;;;;;;5117778;28;20240;-63
2022/08/08 11:47:52;;;;;;;2.53;2.10;;;;;;;;;;5117687;28;20243;-63
2022/08/08 11:50:32;;;;;;;4.60;1.73;;;;;;;;;;5097711;28;20755;-63
2022/08/08 11:53:01;;;;;;;2.57;2.03;;;;;;;;;;5097143;28;20286;-64
2022/08/08 11:55:34;;;;;;;1.50;1.40;;;;;;;;;;5100677;28;20211;-63
2022/08/08 11:58:03;;;;;;;1.40;1.30;;;;;;;;;;5100415;28;20209;-63
2022/08/08 12:00:44;;;;;;;1.60;1.50;;;;;;;;;;5100871;28;20292;-63
2022/08/08 12:03:21;;;;;;;2.97;1.60;;;;;;;;;;5100730;28;20266;-63
2022/08/08 12:05:50;;;;;;;1.83;1.40;;;;;;;;;;5100579;28;20612;-64
2022/08/08 12:08:30;;;;;;;1.45;1.23;;;;;;;;;;5100852;28;20235;-63
2022/08/08 12:11:00;;;;;;;2.15;1.42;;;;;;;;;;5100644;28;20235;-63
2022/08/08 12:13:30;;;;;;;2.60;1.73;;;;;;;;;;5100382;28;20717;-64
2022/08/08 12:16:19;;;;;;;1.80;1.70;;;;;;;;;;5101052;28;20219;-63
2022/08/08 12:19:00;;;;;;;1.15;1.15;;;;;;;;;;5100675;28;20700;-63
2022/08/08 12:21:33;;;;;;;1.50;1.40;;;;;;;;;;5100848;28;20211;-63
2022/08/08 12:24:22;;;;;;;2.73;1.20;;;;;;;;;;5114946;28;20227;-63
2022/08/08 12:26:55;;;;;;;2.40;1.37;;;;;;;;;;5120803;28;20204;-63
2022/08/08 12:29:27;;;;;;;1.58;1.40;;;;;;;;;;5120556;28;20326;-63
2022/08/08 12:32:09;;;;;;;2.10;1.80;;;;;;;;;;5120733;28;20288;-63
2022/08/08 12:34:51;;;;;;;1.33;1.23;;;;;;;;;;5120921;28;20234;-63
2022/08/08 12:37:26;;;;;;;2.55;1.30;;;;;;;;;;5120531;28;20199;-63
2022/08/08 12:40:12;;;;;;;2.47;1.30;;;;;;;;;;5120865;28;20219;-63
2022/08/08 12:42:50;;;;;;;1.52;1.42;;;;;;;;;;5119890;28;20279;-63
2022/08/08 12:45:18;;;;;;;1.60;1.50;;;;;;;;;;5120493;28;20212;-63
2022/08/08 12:48:07;;;;;;;1.63;1.55;;;;;;;;;;5113615;28;20708;-63
2022/08/08 12:50:57;;;;;;;1.42;1.33;;;;;;;;;;5098945;28;20325;-63
2022/08/08 12:53:30;;;;;;;1.73;1.45;;;;;;;;;;5098700;28;20230;-63
2022/08/08 12:56:07;;;;;;;2.03;1.80;;;;;;;;;;5099786;28;20206;-63
2022/08/08 12:58:51;;;;;;;3.20;1.35;;;;;;;;;;5099575;28;20222;-63
2022/08/08 13:01:21;;;;;;;1.10;1.10;;;;;;;;;;5099769;28;20234;-63
2022/08/08 13:04:11;;;;;;;4.05;1.40;;;;;;;;;;5099182;28;20233;-63
2022/08/08 13:07:01;;;;;;;1.50;1.40;;;;;;;;;;5099779;28;20303;-63
2022/08/08 13:09:32;;;;;;;2.15;1.50;;;;;;;;;;5099479;28;20203;-64
2022/08/08 13:12:25;;;;;;;1.58;1.48;;;;;;;;;;5099554;28;20206;-63
2022/08/08 13:14:57;;;;;;;3.00;1.45;;;;;;;;;;5098977;28;20592;-63
2022/08/08 13:17:26;;;;;;;4.65;1.60;;;;;;;;;;5099431;28;20659;-63
2022/08/08 13:20:15;;;;;;;1.45;1.30;;;;;;;;;;5098675;28;20300;-63
2022/08/08 13:22:46;;;;;;;3.65;1.48;;;;;;;;;;5100203;28;20235;-63
2022/08/08 13:25:15;;;;;;;2.20;1.80;;;;;;;;;;5120068;28;20261;-63
2022/08/08 13:27:43;;;;;;;1.98;1.50;;;;;;;;;;5119404;28;20569;-63
2022/08/08 13:30:14;;;;;;;2.25;1.70;;;;;;;;;;5119670;28;20617;-63
2022/08/08 13:32:54;;;;;;;1.60;1.50;;;;;;;;;;5119431;27;20287;-64
2022/08/08 13:35:24;;;;;;;1.98;1.33;;;;;;;;;;5119800;28;20204;-63
2022/08/08 13:38:07;;;;;;;2.30;1.70;;;;;;;;;;5119487;28;20204;-63
2022/08/08 13:40:40;;;;;;;1.30;1.20;;;;;;;;;;5110996;28;20254;-64
2022/08/08 13:43:11;;;;;;;1.75;1.65;;;;;;;;;;5110713;28;20228;-64
2022/08/08 13:45:39;;;;;;;1.55;1.45;;;;;;;;;;5119554;28;20236;-63
2022/08/08 13:48:11;;;;;;;2.00;1.80;;;;;;;;;;5119427;28;20261;-63
2022/08/08 13:50:45;;;;;;;1.40;1.30;;;;;;;;;;5105830;28;20237;-63
2022/08/08 13:53:28;;;;;;;1.63;1.52;;;;;;;;;;5119076;28;20220;-64
2022/08/08 13:56:06;;;;;;;2.08;1.40;;;;;;;;;;5119281;28;20201;-63
2022/08/08 13:58:48;;;;;;;2.05;1.70;;;;;;;;;;5118984;28;20212;-63
2022/08/08 14:01:27;;;;;;;1.67;1.58;;;;;;;;;;5119270;28;20217;-63
2022/08/08 14:04:20;;;;;;;2.42;1.42;;;;;;;;;;5115687;28;20224;-63
2022/08/08 14:06:48;;;;;;;1.20;1.20;;;;;;;;;;5118915;28;20192;-63
2022/08/08 14:09:18;;;;;;;1.60;1.50;;;;;;;;;;5100663;28;20202;-61
2022/08/08 14:11:57;;;;;;;4.13;1.75;;;;;;;;;;5105322;28;21053;-63
2022/08/08 14:14:34;;;;;;;1.70;1.60;;;;;;;;;;5109073;28;20209;-61
2022/08/08 14:17:02;;;;;;;1.73;1.63;;;;;;;;;;5097520;28;20222;-61
2022/08/08 14:19:32;;;;;;;1.77;1.48;;;;;;;;;;5100855;28;20197;-60
2022/08/08 14:22:21;;;;;;;1.75;1.65;;;;;;;;;;5099402;28;20645;-63
2022/08/08 14:24:52;;;;;;;1.85;1.75;;;;;;;;;;5099973;28;20221;-62
2022/08/08 14:27:23;;;;;;;1.83;1.58;;;;;;;;;;5100330;28;20242;-62
2022/08/08 14:29:56;;;;;;;2.03;1.80;;;;;;;;;;5106301;28;20196;-62
2022/08/08 14:32:24;;;;;;;1.65;1.55;;;;;;;;;;5106093;28;20248;-62
2022/08/08 14:34:57;;;;;;;1.80;1.70;;;;;;;;;;5107572;28;20223;-62
2022/08/08 14:37:31;;;;;;;1.80;1.67;;;;;;;;;;5106787;28;20240;-62
2022/08/08 14:40:21;;;;;;;2.22;1.40;;;;;;;;;;5108457;28;20682;-62
2022/08/08 14:42:51;;;;;;;2.15;1.60;;;;;;;;;;5108090;28;20221;-62
2022/08/08 14:45:27;;;;;;;1.80;1.70;;;;;;;;;;5109105;28;20277;-62
2022/08/08 14:48:15;;;;;;;1.80;1.70;;;;;;;;;;5107525;28;20201;-62
2022/08/08 14:51:04;;;;;;;4.25;1.63;;;;;;;;;;5126860;27;20226;-62
2022/08/08 14:53:35;;;;;;;2.20;1.60;;;;;;;;;;5106064;28;20270;-62
2022/08/08 14:56:23;;;;;;;1.95;1.70;;;;;;;;;;5107944;28;20202;-62
2022/08/08 14:58:52;;;;;;;1.92;1.83;;;;;;;;;;5099431;28;20267;-61
2022/08/08 15:01:26;;;;;;;1.60;1.42;;;;;;;;;;5106273;28;20234;-62
2022/08/08 15:04:06;;;;;;;3.03;1.80;;;;;;;;;;5098068;28;20229;-62
2022/08/08 15:06:35;;;;;;;1.88;1.77;;;;;;;;;;5115570;28;20209;-62
2022/08/08 15:09:05;;;;;;;1.73;1.58;;;;;;;;;;5118090;28;20668;-62
2022/08/08 15:11:36;;;;;;;1.58;1.48;;;;;;;;;;5117835;28;20589;-62
2022/08/08 15:14:13;;;;;;;3.75;1.75;;;;;;;;;;5117958;28;20248;-62
2022/08/08 15:16:41;;;;;;;1.60;1.50;;;;;;;;;;5118239;28;20204;-62
2022/08/08 15:19:11;;;;;;;1.60;1.50;;;;;;;;;;5118266;28;20204;-62
2022/08/08 15:21:43;;;;;;;8.55;2.28;;;;;;;;;;5118220;28;20271;-62
2022/08/08 15:24:12;;;;;;;2.53;1.75;;;;;;;;;;5115697;28;20772;-62
2022/08/08 15:26:44;;;;;;;3.22;2.33;;;;;;;;;;5097678;28;20205;-62
2022/08/08 15:29:19;;;;;;;3.70;1.80;;;;;;;;;;5101594;28;20211;-62
2022/08/08 15:31:50;;;;;;;6.75;2.50;;;;;;;;;;5101275;28;20237;-62
2022/08/08 15:34:38;;;;;;;2.08;1.75;;;;;;;;;;5101332;28;20752;-62
2022/08/08 15:37:06;;;;;;;2.60;1.75;;;;;;;;;;5101452;28;20201;-62
2022/08/08 15:39:36;;;;;;;1.73;1.63;;;;;;;;;;5117192;28;20260;-62
2022/08/08 15:42:08;;;;;;;1.30;1.30;;;;;;;;;;5120292;28;20209;-62
2022/08/08 15:44:50;;;;;;;2.15;1.67;;;;;;;;;;5121455;28;20259;-62
2022/08/08 15:47:21;;;;;;;2.05;1.75;;;;;;;;;;5121764;28;20205;-62
2022/08/08 15:49:49;;;;;;;1.58;1.50;;;;;;;;;;5108527;28;20243;-63
2022/08/08 15:52:19;;;;;;;1.58;1.40;;;;;;;;;;5100874;28;20552;-62
2022/08/08 15:54:48;;;;;;;1.77;1.40;;;;;;;;;;5100776;28;20231;-62
2022/08/08 15:57:21;;;;;;;2.25;1.30;;;;;;;;;;5100796;28;20243;-62
2022/08/08 15:59:50;;;;;;;1.85;1.70;;;;;;;;;;5100611;28;20608;-61